sensor_id;sensor_type;location;lat;lon;timestamp;temperature;humidity
53114;DHT22;39009;53.166;6.232;2022-09-01T00:00:47;13.60;99.90
53114;DHT22;39009;53.166;6.232;2022-09-01T00:03:17;13.60;99.90
53114;DHT22;39009;53.166;6.232;2022-09-01T00:05:43;13.60;99.90
53114;DHT22;39009;53.166;6.232;2022-09-01T00:08:09;13.50;99.90
53114;DHT22;39009;53.166;6.232;2022-09-01T00:10:35;13.50;99.90
53114;DHT22;39009;53.166;6.232;2022-09-01T00:13:00;13.50;99.90
53114;DHT22;39009;53.166;6.232;2022-09-01T00:15:26;13.50;99.90
53114;DHT22;39009;53.166;6.232;2022-09-01T00:17:52;13.50;99.90
53114;DHT22;39009;53.166;6.232;2022-09-01T00:20:18;13.40;99.90
53114;DHT22;39009;53.166;6.232;2022-09-01T00:22:43;13.40;99.90
53114;DHT22;39009;53.166;6.232;2022-09-01T00:25:09;13.40;99.90
53114;DHT22;39009;53.166;6.232;2022-09-01T00:27:34;13.40;99.90
53114;DHT22;39009;53.166;6.232;2022-09-01T00:30:00;13.40;99.90
53114;DHT22;39009;53.166;6.232;2022-09-01T00:32:26;13.30;99.90
53114;DHT22;39009;53.166;6.232;2022-09-01T00:34:52;13.30;99.90
53114;DHT22;39009;53.166;6.232;2022-09-01T00:37:18;13.40;99.90
53114;DHT22;39009;53.166;6.232;2022-09-01T00:39:43;13.30;99.90
53114;DHT22;39009;53.166;6.232;2022-09-01T00:42:09;13.30;99.90
53114;DHT22;39009;53.166;6.232;2022-09-01T00:44:35;13.20;99.90
53114;DHT22;39009;53.166;6.232;2022-09-01T00:47:02;13.20;99.90
53114;DHT22;39009;53.166;6.232;2022-09-01T00:49:32;13.20;99.90
53114;DHT22;39009;53.166;6.232;2022-09-01T00:52:02;13.20;99.90
53114;DHT22;39009;53.166;6.232;2022-09-01T00:54:30;13.10;99.90
53114;DHT22;39009;53.166;6.232;2022-09-01T00:56:56;13.10;99.90
53114;DHT22;39009;53.166;6.232;2022-09-01T00:59:22;13.10;99.90
53114;DHT22;39009;53.166;6.232;2022-09-01T01:01:48;13.10;99.90
53114;DHT22;39009;53.166;6.232;2022-09-01T01:04:14;13.10;99.90
53114;DHT22;39009;53.166;6.232;2022-09-01T01:06:41;13.00;99.90
53114;DHT22;39009;53.166;6.232;2022-09-01T01:09:07;13.00;99.90
53114;DHT22;39009;53.166;6.232;2022-09-01T01:11:33;13.00;99.90
53114;DHT22;39009;53.166;6.232;2022-09-01T01:16:26;12.90;99.90
53114;DHT22;39009;53.166;6.232;2022-09-01T01:18:52;12.90;99.90
53114;DHT22;39009;53.166;6.232;2022-09-01T01:21:19;12.80;99.90
53114;DHT22;39009;53.166;6.232;2022-09-01T01:26:47;12.80;99.90
53114;DHT22;39009;53.166;6.232;2022-09-01T01:29:13;12.80;99.90
53114;DHT22;39009;53.166;6.232;2022-09-01T01:31:39;12.80;99.90
53114;DHT22;39009;53.166;6.232;2022-09-01T01:34:04;12.70;99.90
53114;DHT22;39009;53.166;6.232;2022-09-01T01:36:34;12.70;99.90
53114;DHT22;39009;53.166;6.232;2022-09-01T01:39:02;12.60;99.90
53114;DHT22;39009;53.166;6.232;2022-09-01T01:41:29;12.70;99.90
53114;DHT22;39009;53.166;6.232;2022-09-01T01:43:56;12.60;99.90
53114;DHT22;39009;53.166;6.232;2022-09-01T01:46:23;12.70;99.90
53114;DHT22;39009;53.166;6.232;2022-09-01T01:48:50;12.80;99.90
53114;DHT22;39009;53.166;6.232;2022-09-01T01:51:17;12.60;99.90
53114;DHT22;39009;53.166;6.232;2022-09-01T01:53:46;12.60;99.90
53114;DHT22;39009;53.166;6.232;2022-09-01T01:56:12;12.60;99.90
53114;DHT22;39009;53.166;6.232;2022-09-01T01:58:38;12.60;99.90
53114;DHT22;39009;53.166;6.232;2022-09-01T02:01:05;12.60;99.90
53114;DHT22;39009;53.166;6.232;2022-09-01T02:03:34;12.60;99.90
53114;DHT22;39009;53.166;6.232;2022-09-01T02:06:04;12.60;99.90
53114;DHT22;39009;53.166;6.232;2022-09-01T02:08:32;12.60;99.90
53114;DHT22;39009;53.166;6.232;2022-09-01T02:10:58;12.60;99.90
53114;DHT22;39009;53.166;6.232;2022-09-01T02:13:24;12.60;99.90
53114;DHT22;39009;53.166;6.232;2022-09-01T02:15:53;12.50;99.90
53114;DHT22;39009;53.166;6.232;2022-09-01T02:18:20;12.50;99.90
53114;DHT22;39009;53.166;6.232;2022-09-01T02:20:48;12.50;99.90
53114;DHT22;39009;53.166;6.232;2022-09-01T02:23:15;12.50;99.90
53114;DHT22;39009;53.166;6.232;2022-09-01T02:25:43;12.50;99.90
53114;DHT22;39009;53.166;6.232;2022-09-01T02:28:10;12.50;99.90
53114;DHT22;39009;53.166;6.232;2022-09-01T02:30:39;12.50;99.90
53114;DHT22;39009;53.166;6.232;2022-09-01T02:33:06;12.60;99.90
53114;DHT22;39009;53.166;6.232;2022-09-01T02:35:34;12.60;99.90
53114;DHT22;39009;53.166;6.232;2022-09-01T02:38:01;12.50;99.90
53114;DHT22;39009;53.166;6.232;2022-09-01T02:40:27;12.50;99.90
53114;DHT22;39009;53.166;6.232;2022-09-01T02:42:55;12.70;99.90
53114;DHT22;39009;53.166;6.232;2022-09-01T02:45:21;12.60;99.90
53114;DHT22;39009;53.166;6.232;2022-09-01T02:47:48;12.60;99.90
53114;DHT22;39009;53.166;6.232;2022-09-01T02:50:15;12.60;99.90
53114;DHT22;39009;53.166;6.232;2022-09-01T02:52:44;12.70;99.90
53114;DHT22;39009;53.166;6.232;2022-09-01T02:55:13;12.60;99.90
53114;DHT22;39009;53.166;6.232;2022-09-01T02:57:43;12.80;99.90
53114;DHT22;39009;53.166;6.232;2022-09-01T03:00:12;12.50;99.90
53114;DHT22;39009;53.166;6.232;2022-09-01T03:02:50;12.60;99.90
53114;DHT22;39009;53.166;6.232;2022-09-01T03:05:20;12.50;99.90
53114;DHT22;39009;53.166;6.232;2022-09-01T03:07:53;12.60;99.90
53114;DHT22;39009;53.166;6.232;2022-09-01T03:10:24;12.60;99.90
53114;DHT22;39009;53.166;6.232;2022-09-01T03:12:52;12.60;99.90
53114;DHT22;39009;53.166;6.232;2022-09-01T03:15:19;12.60;99.90
53114;DHT22;39009;53.166;6.232;2022-09-01T03:17:45;12.60;99.90
53114;DHT22;39009;53.166;6.232;2022-09-01T03:20:12;12.60;99.90
53114;DHT22;39009;53.166;6.232;2022-09-01T03:22:38;12.60;99.90
53114;DHT22;39009;53.166;6.232;2022-09-01T03:25:03;12.60;99.90
53114;DHT22;39009;53.166;6.232;2022-09-01T03:27:29;12.60;99.90
53114;DHT22;39009;53.166;6.232;2022-09-01T03:29:54;12.60;99.90
53114;DHT22;39009;53.166;6.232;2022-09-01T03:32:20;12.70;99.90
53114;DHT22;39009;53.166;6.232;2022-09-01T03:34:46;12.60;99.90
53114;DHT22;39009;53.166;6.232;2022-09-01T03:37:11;12.70;99.90
53114;DHT22;39009;53.166;6.232;2022-09-01T03:39:37;12.60;99.90
53114;DHT22;39009;53.166;6.232;2022-09-01T03:42:03;12.60;99.90
53114;DHT22;39009;53.166;6.232;2022-09-01T03:44:28;12.60;99.90
53114;DHT22;39009;53.166;6.232;2022-09-01T03:46:54;12.60;99.90
53114;DHT22;39009;53.166;6.232;2022-09-01T03:49:22;12.60;99.90
53114;DHT22;39009;53.166;6.232;2022-09-01T03:51:52;12.60;99.90
53114;DHT22;39009;53.166;6.232;2022-09-01T03:54:21;12.50;99.90
53114;DHT22;39009;53.166;6.232;2022-09-01T03:56:54;12.50;99.90
53114;DHT22;39009;53.166;6.232;2022-09-01T03:59:21;12.50;99.90
53114;DHT22;39009;53.166;6.232;2022-09-01T04:01:47;12.50;99.90
53114;DHT22;39009;53.166;6.232;2022-09-01T04:04:12;12.40;99.90
53114;DHT22;39009;53.166;6.232;2022-09-01T04:06:39;12.40;99.90
53114;DHT22;39009;53.166;6.232;2022-09-01T04:09:05;12.40;99.90
53114;DHT22;39009;53.166;6.232;2022-09-01T04:11:31;12.40;99.90
53114;DHT22;39009;53.166;6.232;2022-09-01T04:13:57;12.30;99.90
53114;DHT22;39009;53.166;6.232;2022-09-01T04:16:24;12.30;99.90
53114;DHT22;39009;53.166;6.232;2022-09-01T04:19:09;12.30;99.90
53114;DHT22;39009;53.166;6.232;2022-09-01T04:21:44;12.30;99.90
53114;DHT22;39009;53.166;6.232;2022-09-01T04:24:10;12.30;99.90
53114;DHT22;39009;53.166;6.232;2022-09-01T04:26:39;12.20;99.90
53114;DHT22;39009;53.166;6.232;2022-09-01T04:29:05;12.20;99.90
53114;DHT22;39009;53.166;6.232;2022-09-01T04:31:34;12.20;99.90
53114;DHT22;39009;53.166;6.232;2022-09-01T04:34:01;12.20;99.90
53114;DHT22;39009;53.166;6.232;2022-09-01T04:36:28;12.10;99.90
53114;DHT22;39009;53.166;6.232;2022-09-01T04:38:55;12.10;99.90
53114;DHT22;39009;53.166;6.232;2022-09-01T04:41:22;12.30;99.90
53114;DHT22;39009;53.166;6.232;2022-09-01T04:43:50;12.10;99.90
53114;DHT22;39009;53.166;6.232;2022-09-01T04:46:17;12.10;99.90
53114;DHT22;39009;53.166;6.232;2022-09-01T04:48:42;12.00;99.90
53114;DHT22;39009;53.166;6.232;2022-09-01T04:51:10;12.00;99.90
53114;DHT22;39009;53.166;6.232;2022-09-01T04:53:37;11.90;99.90
53114;DHT22;39009;53.166;6.232;2022-09-01T04:56:03;11.90;99.90
53114;DHT22;39009;53.166;6.232;2022-09-01T04:58:28;11.80;99.90
53114;DHT22;39009;53.166;6.232;2022-09-01T05:00:55;11.80;99.90
53114;DHT22;39009;53.166;6.232;2022-09-01T05:03:20;11.60;99.90
53114;DHT22;39009;53.166;6.232;2022-09-01T05:05:48;11.60;99.90
53114;DHT22;39009;53.166;6.232;2022-09-01T05:08:15;11.50;99.90
53114;DHT22;39009;53.166;6.232;2022-09-01T05:10:42;11.40;99.90
53114;DHT22;39009;53.166;6.232;2022-09-01T05:13:09;11.50;99.90
53114;DHT22;39009;53.166;6.232;2022-09-01T05:15:40;11.40;99.90
53114;DHT22;39009;53.166;6.232;2022-09-01T05:18:13;11.50;99.90
53114;DHT22;39009;53.166;6.232;2022-09-01T05:20:39;11.60;99.90
53114;DHT22;39009;53.166;6.232;2022-09-01T05:23:07;11.60;99.90
53114;DHT22;39009;53.166;6.232;2022-09-01T05:25:39;11.60;99.90
53114;DHT22;39009;53.166;6.232;2022-09-01T05:28:06;11.60;99.90
53114;DHT22;39009;53.166;6.232;2022-09-01T05:30:34;11.70;99.90
53114;DHT22;39009;53.166;6.232;2022-09-01T05:33:01;11.70;99.90
53114;DHT22;39009;53.166;6.232;2022-09-01T05:35:26;11.70;99.90
53114;DHT22;39009;53.166;6.232;2022-09-01T05:37:52;11.70;99.90
53114;DHT22;39009;53.166;6.232;2022-09-01T05:40:18;11.80;99.90
53114;DHT22;39009;53.166;6.232;2022-09-01T05:42:44;12.10;99.90
53114;DHT22;39009;53.166;6.232;2022-09-01T05:45:10;12.10;99.90
53114;DHT22;39009;53.166;6.232;2022-09-01T05:47:39;12.30;99.90
53114;DHT22;39009;53.166;6.232;2022-09-01T05:50:06;12.50;99.90
53114;DHT22;39009;53.166;6.232;2022-09-01T05:52:35;12.80;99.90
53114;DHT22;39009;53.166;6.232;2022-09-01T05:55:01;13.20;99.90
53114;DHT22;39009;53.166;6.232;2022-09-01T05:57:27;13.60;99.90
53114;DHT22;39009;53.166;6.232;2022-09-01T05:59:52;14.00;99.90
53114;DHT22;39009;53.166;6.232;2022-09-01T06:02:19;14.20;99.90
53114;DHT22;39009;53.166;6.232;2022-09-01T06:04:46;14.60;99.90
53114;DHT22;39009;53.166;6.232;2022-09-01T06:07:12;14.50;99.90
53114;DHT22;39009;53.166;6.232;2022-09-01T06:09:39;14.40;99.90
53114;DHT22;39009;53.166;6.232;2022-09-01T06:12:06;14.40;99.90
53114;DHT22;39009;53.166;6.232;2022-09-01T06:14:45;14.80;99.90
53114;DHT22;39009;53.166;6.232;2022-09-01T06:17:11;15.30;99.90
53114;DHT22;39009;53.166;6.232;2022-09-01T06:19:41;15.60;99.90
53114;DHT22;39009;53.166;6.232;2022-09-01T06:22:07;15.90;99.90
53114;DHT22;39009;53.166;6.232;2022-09-01T06:24:35;16.00;99.90
53114;DHT22;39009;53.166;6.232;2022-09-01T06:27:01;15.70;99.90
53114;DHT22;39009;53.166;6.232;2022-09-01T06:29:26;15.50;99.90
53114;DHT22;39009;53.166;6.232;2022-09-01T06:31:55;15.30;99.90
53114;DHT22;39009;53.166;6.232;2022-09-01T06:34:21;15.10;99.90
53114;DHT22;39009;53.166;6.232;2022-09-01T06:36:47;15.30;99.90
53114;DHT22;39009;53.166;6.232;2022-09-01T06:39:16;15.90;99.90
53114;DHT22;39009;53.166;6.232;2022-09-01T06:41:45;16.80;99.90
53114;DHT22;39009;53.166;6.232;2022-09-01T06:44:13;17.90;99.90
53114;DHT22;39009;53.166;6.232;2022-09-01T06:46:39;18.90;99.90
53114;DHT22;39009;53.166;6.232;2022-09-01T06:49:04;19.00;99.90
53114;DHT22;39009;53.166;6.232;2022-09-01T06:51:30;18.80;99.90
53114;DHT22;39009;53.166;6.232;2022-09-01T06:53:56;18.60;99.90
53114;DHT22;39009;53.166;6.232;2022-09-01T06:56:24;18.60;99.90
53114;DHT22;39009;53.166;6.232;2022-09-01T06:58:52;18.70;99.90
53114;DHT22;39009;53.166;6.232;2022-09-01T07:01:18;18.70;99.90
53114;DHT22;39009;53.166;6.232;2022-09-01T07:03:49;18.40;99.90
53114;DHT22;39009;53.166;6.232;2022-09-01T07:06:18;18.60;99.90
53114;DHT22;39009;53.166;6.232;2022-09-01T07:08:49;18.80;99.90
53114;DHT22;39009;53.166;6.232;2022-09-01T07:11:16;19.40;99.90
53114;DHT22;39009;53.166;6.232;2022-09-01T07:13:49;20.10;99.90
53114;DHT22;39009;53.166;6.232;2022-09-01T07:16:16;20.60;99.90
53114;DHT22;39009;53.166;6.232;2022-09-01T07:18:44;20.70;99.90
53114;DHT22;39009;53.166;6.232;2022-09-01T07:21:10;20.70;99.90
53114;DHT22;39009;53.166;6.232;2022-09-01T07:23:35;20.80;99.90
53114;DHT22;39009;53.166;6.232;2022-09-01T07:26:06;20.70;99.90
53114;DHT22;39009;53.166;6.232;2022-09-01T07:28:32;20.50;99.90
53114;DHT22;39009;53.166;6.232;2022-09-01T07:30:58;20.00;99.90
53114;DHT22;39009;53.166;6.232;2022-09-01T07:33:24;19.80;99.90
53114;DHT22;39009;53.166;6.232;2022-09-01T07:35:51;19.70;99.90
53114;DHT22;39009;53.166;6.232;2022-09-01T07:38:20;19.90;99.90
53114;DHT22;39009;53.166;6.232;2022-09-01T07:40:46;20.10;99.90
53114;DHT22;39009;53.166;6.232;2022-09-01T07:43:15;20.20;99.90
53114;DHT22;39009;53.166;6.232;2022-09-01T07:45:42;19.90;99.90
53114;DHT22;39009;53.166;6.232;2022-09-01T07:48:12;20.00;99.90
53114;DHT22;39009;53.166;6.232;2022-09-01T07:50:42;20.10;99.90
53114;DHT22;39009;53.166;6.232;2022-09-01T07:53:12;20.90;99.90
53114;DHT22;39009;53.166;6.232;2022-09-01T07:55:41;21.50;99.90
53114;DHT22;39009;53.166;6.232;2022-09-01T07:58:06;22.20;99.90
53114;DHT22;39009;53.166;6.232;2022-09-01T08:00:32;22.60;99.90
53114;DHT22;39009;53.166;6.232;2022-09-01T08:02:58;23.00;99.90
53114;DHT22;39009;53.166;6.232;2022-09-01T08:05:24;23.60;99.30
53114;DHT22;39009;53.166;6.232;2022-09-01T08:07:51;23.90;97.70
53114;DHT22;39009;53.166;6.232;2022-09-01T08:10:17;24.00;97.00
53114;DHT22;39009;53.166;6.232;2022-09-01T08:12:42;24.20;96.00
53114;DHT22;39009;53.166;6.232;2022-09-01T08:15:08;24.20;95.40
53114;DHT22;39009;53.166;6.232;2022-09-01T08:17:36;24.40;94.90
53114;DHT22;39009;53.166;6.232;2022-09-01T08:20:02;24.60;94.20
53114;DHT22;39009;53.166;6.232;2022-09-01T08:22:28;25.00;94.20
53114;DHT22;39009;53.166;6.232;2022-09-01T08:24:53;25.20;93.30
53114;DHT22;39009;53.166;6.232;2022-09-01T08:27:19;25.30;92.70
53114;DHT22;39009;53.166;6.232;2022-09-01T08:29:45;24.80;92.70
53114;DHT22;39009;53.166;6.232;2022-09-01T08:32:11;24.30;93.20
53114;DHT22;39009;53.166;6.232;2022-09-01T08:34:36;24.00;94.60
53114;DHT22;39009;53.166;6.232;2022-09-01T08:37:03;24.50;94.90
53114;DHT22;39009;53.166;6.232;2022-09-01T08:39:29;25.20;95.10
53114;DHT22;39009;53.166;6.232;2022-09-01T08:41:59;26.00;92.70
53114;DHT22;39009;53.166;6.232;2022-09-01T08:47:11;26.50;91.70
53114;DHT22;39009;53.166;6.232;2022-09-01T08:49:39;26.80;91.70
53114;DHT22;39009;53.166;6.232;2022-09-01T08:57:31;26.80;90.30
53114;DHT22;39009;53.166;6.232;2022-09-01T08:59:57;26.70;89.00
53114;DHT22;39009;53.166;6.232;2022-09-01T09:02:26;26.60;90.10
53114;DHT22;39009;53.166;6.232;2022-09-01T09:05:03;26.40;89.50
53114;DHT22;39009;53.166;6.232;2022-09-01T09:12:44;26.60;88.70
53114;DHT22;39009;53.166;6.232;2022-09-01T09:15:17;26.40;88.80
53114;DHT22;39009;53.166;6.232;2022-09-01T09:17:51;26.40;89.00
53114;DHT22;39009;53.166;6.232;2022-09-01T09:20:24;26.60;90.20
53114;DHT22;39009;53.166;6.232;2022-09-01T09:22:50;26.80;90.50
53114;DHT22;39009;53.166;6.232;2022-09-01T09:25:17;27.20;86.80
53114;DHT22;39009;53.166;6.232;2022-09-01T09:27:48;27.50;89.70
53114;DHT22;39009;53.166;6.232;2022-09-01T09:30:35;27.20;85.80
53114;DHT22;39009;53.166;6.232;2022-09-01T09:33:04;26.80;88.30
53114;DHT22;39009;53.166;6.232;2022-09-01T09:35:36;26.90;88.10
53114;DHT22;39009;53.166;6.232;2022-09-01T09:43:44;26.20;86.10
53114;DHT22;39009;53.166;6.232;2022-09-01T09:48:51;25.30;87.50
53114;DHT22;39009;53.166;6.232;2022-09-01T09:51:30;24.50;89.20
53114;DHT22;39009;53.166;6.232;2022-09-01T09:54:09;24.10;88.80
53114;DHT22;39009;53.166;6.232;2022-09-01T09:56:34;23.80;87.20
53114;DHT22;39009;53.166;6.232;2022-09-01T09:59:00;23.40;88.50
53114;DHT22;39009;53.166;6.232;2022-09-01T10:03:53;22.90;88.70
53114;DHT22;39009;53.166;6.232;2022-09-01T10:08:54;22.60;90.30
53114;DHT22;39009;53.166;6.232;2022-09-01T10:11:24;22.30;89.50
53114;DHT22;39009;53.166;6.232;2022-09-01T10:13:51;22.20;89.50
53114;DHT22;39009;53.166;6.232;2022-09-01T10:16:18;22.20;90.80
53114;DHT22;39009;53.166;6.232;2022-09-01T10:18:47;22.50;91.20
53114;DHT22;39009;53.166;6.232;2022-09-01T10:21:27;23.20;90.80
53114;DHT22;39009;53.166;6.232;2022-09-01T10:23:55;23.70;87.60
53114;DHT22;39009;53.166;6.232;2022-09-01T10:26:21;23.60;87.60
53114;DHT22;39009;53.166;6.232;2022-09-01T10:28:53;23.50;88.40
53114;DHT22;39009;53.166;6.232;2022-09-01T10:31:20;23.30;84.50
53114;DHT22;39009;53.166;6.232;2022-09-01T10:33:46;23.00;85.40
53114;DHT22;39009;53.166;6.232;2022-09-01T10:36:12;22.80;85.90
53114;DHT22;39009;53.166;6.232;2022-09-01T10:38:40;22.70;87.00
53114;DHT22;39009;53.166;6.232;2022-09-01T10:41:06;22.70;86.80
53114;DHT22;39009;53.166;6.232;2022-09-01T10:43:39;22.70;87.00
53114;DHT22;39009;53.166;6.232;2022-09-01T10:48:47;22.70;84.00
53114;DHT22;39009;53.166;6.232;2022-09-01T10:53:50;22.50;82.20
53114;DHT22;39009;53.166;6.232;2022-09-01T10:56:17;22.40;82.90
53114;DHT22;39009;53.166;6.232;2022-09-01T10:58:45;22.30;83.50
53114;DHT22;39009;53.166;6.232;2022-09-01T11:01:13;22.00;82.50
53114;DHT22;39009;53.166;6.232;2022-09-01T11:03:48;21.80;81.90
53114;DHT22;39009;53.166;6.232;2022-09-01T11:06:31;21.80;83.40
53114;DHT22;39009;53.166;6.232;2022-09-01T11:08:57;22.30;85.00
53114;DHT22;39009;53.166;6.232;2022-09-01T11:14:15;24.00;79.70
53114;DHT22;39009;53.166;6.232;2022-09-01T11:16:42;24.10;78.70
53114;DHT22;39009;53.166;6.232;2022-09-01T11:21:42;23.70;80.40
53114;DHT22;39009;53.166;6.232;2022-09-01T11:26:53;23.20;80.30
53114;DHT22;39009;53.166;6.232;2022-09-01T11:32:03;23.00;81.70
53114;DHT22;39009;53.166;6.232;2022-09-01T11:34:29;23.90;81.40
53114;DHT22;39009;53.166;6.232;2022-09-01T11:36:58;24.70;80.00
53114;DHT22;39009;53.166;6.232;2022-09-01T11:39:30;25.10;79.20
53114;DHT22;39009;53.166;6.232;2022-09-01T11:42:00;25.10;78.00
53114;DHT22;39009;53.166;6.232;2022-09-01T11:46:54;24.40;78.70
53114;DHT22;39009;53.166;6.232;2022-09-01T11:51:48;24.70;79.00
53114;DHT22;39009;53.166;6.232;2022-09-01T11:54:14;24.40;78.20
53114;DHT22;39009;53.166;6.232;2022-09-01T11:56:40;24.20;79.20
53114;DHT22;39009;53.166;6.232;2022-09-01T11:59:05;23.80;79.00
53114;DHT22;39009;53.166;6.232;2022-09-01T12:01:32;23.50;79.40
53114;DHT22;39009;53.166;6.232;2022-09-01T12:04:16;23.60;81.00
53114;DHT22;39009;53.166;6.232;2022-09-01T12:06:49;24.20;81.30
53114;DHT22;39009;53.166;6.232;2022-09-01T12:09:15;24.40;78.80
53114;DHT22;39009;53.166;6.232;2022-09-01T12:11:41;24.80;78.90
53114;DHT22;39009;53.166;6.232;2022-09-01T12:14:08;25.60;75.90
53114;DHT22;39009;53.166;6.232;2022-09-01T12:16:35;26.30;76.10
53114;DHT22;39009;53.166;6.232;2022-09-01T12:19:02;26.60;74.70
53114;DHT22;39009;53.166;6.232;2022-09-01T12:21:33;27.20;73.80
53114;DHT22;39009;53.166;6.232;2022-09-01T12:24:16;27.20;71.80
53114;DHT22;39009;53.166;6.232;2022-09-01T12:26:42;26.60;71.90
53114;DHT22;39009;53.166;6.232;2022-09-01T12:29:07;25.80;73.40
53114;DHT22;39009;53.166;6.232;2022-09-01T12:31:34;25.20;73.40
53114;DHT22;39009;53.166;6.232;2022-09-01T12:33:59;25.10;75.40
53114;DHT22;39009;53.166;6.232;2022-09-01T12:36:32;25.70;75.80
53114;DHT22;39009;53.166;6.232;2022-09-01T12:41:41;25.90;73.30
53114;DHT22;39009;53.166;6.232;2022-09-01T12:46:51;24.60;73.60
53114;DHT22;39009;53.166;6.232;2022-09-01T12:49:18;25.00;76.20
53114;DHT22;39009;53.166;6.232;2022-09-01T12:51:44;25.70;75.00
53114;DHT22;39009;53.166;6.232;2022-09-01T12:54:12;25.70;73.60
53114;DHT22;39009;53.166;6.232;2022-09-01T12:56:37;25.30;73.40
53114;DHT22;39009;53.166;6.232;2022-09-01T12:59:07;24.80;73.50
53114;DHT22;39009;53.166;6.232;2022-09-01T13:01:33;24.20;73.80
53114;DHT22;39009;53.166;6.232;2022-09-01T13:06:44;23.70;76.00
53114;DHT22;39009;53.166;6.232;2022-09-01T13:09:09;23.50;75.10
53114;DHT22;39009;53.166;6.232;2022-09-01T13:11:35;23.40;75.80
53114;DHT22;39009;53.166;6.232;2022-09-01T13:14:00;23.60;76.30
53114;DHT22;39009;53.166;6.232;2022-09-01T13:16:26;24.30;76.20
53114;DHT22;39009;53.166;6.232;2022-09-01T13:18:51;24.80;74.70
53114;DHT22;39009;53.166;6.232;2022-09-01T13:21:17;25.30;73.60
53114;DHT22;39009;53.166;6.232;2022-09-01T13:23:43;25.10;72.50
53114;DHT22;39009;53.166;6.232;2022-09-01T13:26:10;25.00;72.30
53114;DHT22;39009;53.166;6.232;2022-09-01T13:28:35;25.40;74.10
53114;DHT22;39009;53.166;6.232;2022-09-01T13:31:02;25.90;72.70
53114;DHT22;39009;53.166;6.232;2022-09-01T13:33:31;25.80;72.80
53114;DHT22;39009;53.166;6.232;2022-09-01T13:35:57;25.30;72.70
53114;DHT22;39009;53.166;6.232;2022-09-01T13:38:23;24.90;72.80
53114;DHT22;39009;53.166;6.232;2022-09-01T13:40:49;24.30;73.20
53114;DHT22;39009;53.166;6.232;2022-09-01T13:43:15;24.20;74.30
53114;DHT22;39009;53.166;6.232;2022-09-01T13:45:42;24.80;74.20
53114;DHT22;39009;53.166;6.232;2022-09-01T13:48:07;25.20;74.10
53114;DHT22;39009;53.166;6.232;2022-09-01T13:50:33;25.90;73.80
53114;DHT22;39009;53.166;6.232;2022-09-01T13:52:59;26.70;71.90
53114;DHT22;39009;53.166;6.232;2022-09-01T13:55:26;26.20;70.60
53114;DHT22;39009;53.166;6.232;2022-09-01T13:57:52;25.60;71.50
53114;DHT22;39009;53.166;6.232;2022-09-01T14:00:19;24.90;71.80
53114;DHT22;39009;53.166;6.232;2022-09-01T14:02:46;24.50;72.60
53114;DHT22;39009;53.166;6.232;2022-09-01T14:05:21;25.10;73.70
53114;DHT22;39009;53.166;6.232;2022-09-01T14:07:47;25.90;72.60
53114;DHT22;39009;53.166;6.232;2022-09-01T14:10:13;26.80;71.60
53114;DHT22;39009;53.166;6.232;2022-09-01T14:12:40;26.70;70.00
53114;DHT22;39009;53.166;6.232;2022-09-01T14:15:06;26.60;70.90
53114;DHT22;39009;53.166;6.232;2022-09-01T14:17:33;26.70;71.50
53114;DHT22;39009;53.166;6.232;2022-09-01T14:19:58;27.00;69.30
53114;DHT22;39009;53.166;6.232;2022-09-01T14:22:24;27.30;68.60
53114;DHT22;39009;53.166;6.232;2022-09-01T14:24:49;27.80;68.80
53114;DHT22;39009;53.166;6.232;2022-09-01T14:27:15;27.60;69.30
53114;DHT22;39009;53.166;6.232;2022-09-01T14:29:40;27.30;69.60
53114;DHT22;39009;53.166;6.232;2022-09-01T14:32:06;26.80;69.70
53114;DHT22;39009;53.166;6.232;2022-09-01T14:34:33;25.80;70.10
53114;DHT22;39009;53.166;6.232;2022-09-01T14:36:58;24.90;71.20
53114;DHT22;39009;53.166;6.232;2022-09-01T14:39:24;24.30;73.20
53114;DHT22;39009;53.166;6.232;2022-09-01T14:41:49;23.90;73.60
53114;DHT22;39009;53.166;6.232;2022-09-01T14:44:15;24.20;75.30
53114;DHT22;39009;53.166;6.232;2022-09-01T14:46:40;24.30;74.00
53114;DHT22;39009;53.166;6.232;2022-09-01T14:49:06;24.00;74.50
53114;DHT22;39009;53.166;6.232;2022-09-01T14:51:32;23.60;74.60
53114;DHT22;39009;53.166;6.232;2022-09-01T14:53:58;23.40;75.80
53114;DHT22;39009;53.166;6.232;2022-09-01T14:56:24;23.80;75.20
53114;DHT22;39009;53.166;6.232;2022-09-01T14:58:50;24.00;75.30
53114;DHT22;39009;53.166;6.232;2022-09-01T15:01:19;24.20;73.90
53114;DHT22;39009;53.166;6.232;2022-09-01T15:03:45;24.20;74.00
53114;DHT22;39009;53.166;6.232;2022-09-01T15:06:12;24.20;73.90
53114;DHT22;39009;53.166;6.232;2022-09-01T15:08:38;24.00;74.30
53114;DHT22;39009;53.166;6.232;2022-09-01T15:11:07;23.80;75.10
53114;DHT22;39009;53.166;6.232;2022-09-01T15:13:33;23.50;74.60
53114;DHT22;39009;53.166;6.232;2022-09-01T15:15:59;23.20;75.20
53114;DHT22;39009;53.166;6.232;2022-09-01T15:18:25;23.00;76.10
53114;DHT22;39009;53.166;6.232;2022-09-01T15:20:50;22.70;76.40
53114;DHT22;39009;53.166;6.232;2022-09-01T15:23:22;22.50;77.50
53114;DHT22;39009;53.166;6.232;2022-09-01T15:25:49;22.40;77.30
53114;DHT22;39009;53.166;6.232;2022-09-01T15:28:15;22.40;77.20
53114;DHT22;39009;53.166;6.232;2022-09-01T15:30:41;22.40;77.80
53114;DHT22;39009;53.166;6.232;2022-09-01T15:33:08;22.40;78.50
53114;DHT22;39009;53.166;6.232;2022-09-01T15:35:34;22.40;78.50
53114;DHT22;39009;53.166;6.232;2022-09-01T15:38:00;22.30;77.60
53114;DHT22;39009;53.166;6.232;2022-09-01T15:40:25;22.30;78.50
53114;DHT22;39009;53.166;6.232;2022-09-01T15:42:51;22.30;78.70
53114;DHT22;39009;53.166;6.232;2022-09-01T15:45:18;22.20;78.60
53114;DHT22;39009;53.166;6.232;2022-09-01T15:47:44;22.20;78.00
53114;DHT22;39009;53.166;6.232;2022-09-01T15:50:13;22.10;77.40
53114;DHT22;39009;53.166;6.232;2022-09-01T15:53:12;22.10;78.70
53114;DHT22;39009;53.166;6.232;2022-09-01T15:55:47;22.20;78.10
53114;DHT22;39009;53.166;6.232;2022-09-01T15:58:15;22.20;78.60
53114;DHT22;39009;53.166;6.232;2022-09-01T16:00:41;22.30;78.30
53114;DHT22;39009;53.166;6.232;2022-09-01T16:03:07;22.40;78.90
53114;DHT22;39009;53.166;6.232;2022-09-01T16:05:34;22.50;78.40
53114;DHT22;39009;53.166;6.232;2022-09-01T16:08:00;22.40;77.70
53114;DHT22;39009;53.166;6.232;2022-09-01T16:10:26;22.40;78.50
53114;DHT22;39009;53.166;6.232;2022-09-01T16:12:53;22.30;79.20
53114;DHT22;39009;53.166;6.232;2022-09-01T16:15:20;22.20;78.50
53114;DHT22;39009;53.166;6.232;2022-09-01T16:20:22;22.00;78.90
53114;DHT22;39009;53.166;6.232;2022-09-01T16:25:43;21.70;79.20
53114;DHT22;39009;53.166;6.232;2022-09-01T16:28:12;21.70;79.10
53114;DHT22;39009;53.166;6.232;2022-09-01T16:30:40;21.60;78.00
53114;DHT22;39009;53.166;6.232;2022-09-01T16:33:08;21.50;79.10
53114;DHT22;39009;53.166;6.232;2022-09-01T16:38:16;21.40;80.50
53114;DHT22;39009;53.166;6.232;2022-09-01T16:48:33;21.20;81.30